Details From EGKK - London Gatwick
To TNCM - St Maarten - Princess Juliana Intl
Flight Number -
Tags Generated
Created
Modified
Stats Distance 3,552 nm / 6,579 km
Max Altitude 0 ft / 0 m
Waypoints 4
Social Downloads 0
Likes 0
Share VATSIM

Download

Looking for another format? Having issues loading an existing format? Contact us
Advertisement - Login to hide

Notes

Generated

Route

EGKK INSUN MNOLO TNCM

ID Type Via Altitude Latitude Longitude Leg Dist Tot Dist Heading (true) Name
O EGKK APT - 0 ft / 0 m 51.14691˚ -0.21257˚ - 0 nm - -
INSUN FIX - 0 ft / 0 m 50.39577˚ -6.32430˚ 236 nm 236 nm 261° / 257° -
MNOLO FIX - 0 ft / 0 m 18.34556˚ -62.80211˚ 3290 nm 3526 nm 256° / 221° -
O TNCM APT - 0 ft / 0 m 18.03937˚ -63.11961˚ 25 nm 3552 nm 225° / 225° -

Altitude Profile

Advertisement - Login to hide

Weather


0- 5 10 15 20 25 30 35+ Temperature / ° C

Clouds and Precipitation
Forecast for 2017-12-12 06:00 UTC. Updated 2 hours ago

Ground ~20,000 ft ~40,000 ft Winds

EGKK

Details ICAO EGKK (LGW)
Name London Gatwick
Region United Kingdom
Timezone Europe/London (UTC+0.0)
Stats Elevation 196 ft / 60 m (AMSL)
Location 51.148753° -0.192472°
Runways 2
Magnetic Variation 0.433° W

METAR

EGKK 120420Z 24002KT CAVOK M02/M03 Q1004

Decode

TAF

TAF EGKK 112253Z 1200/1306 34010KT CAVOK BECMG 1206/1209 VRB05KT BECMG 1218/1221 BKN030 BECMG 1221/1224 -RA BKN012 TEMPO 1300/1306 6000 RA BKN006 PROB30 TEMPO 1300/1306 21015G25KT 3000 +RA BKN004

Decode

Departure Runways

ID Width Length Bearing (true) Bearing (mag) Surface Threshold Offset Overrun Length
08L 148 ft / 45 m 8,377 ft / 2,553 m 77.69° 78.12° Asphalt 1,053 ft / 321 m 0 ft / 0 m
08R 148 ft / 45 m 10,341 ft / 3,152 m 77.59° 78.02° Asphalt 1,289 ft / 393 m 0 ft / 0 m
26L 148 ft / 45 m 10,341 ft / 3,152 m 257.63° 258.06° Asphalt 879 ft / 268 m 600 ft / 183 m
26R 148 ft / 45 m 8,377 ft / 2,553 m 257.71° 258.14° Asphalt 1,365 ft / 416 m 0 ft / 0 m

TNCM

Details ICAO TNCM (SXM)
Name St Maarten - Princess Juliana Intl
Region Caribbean Netherlands, Aruba, Curaçao, Sint Maarten
Timezone Unknown (UTC+0.0)
Stats Elevation 12 ft / 4 m (AMSL)
Location 18.040889° -63.108974°
Runways 1
Magnetic Variation 14.325° W

METAR

Not found

TAF

TAF TNCM 112320Z 1200/1224 06010KT P6SM FEW020 FM120030 VRB03KT P6SM FEW250 FM120600 08006KT P6SM VCSH FEW250 FM121800 16008KT P6SM VCSH SCT030

Decode

Destination Runways

ID Width Length Bearing (true) Bearing (mag) Surface Threshold Offset Overrun Length
10 148 ft / 45 m 7,464 ft / 2,275 m 81.43° 95.75° Asphalt 0 ft / 0 m 151 ft / 46 m
28 148 ft / 45 m 7,464 ft / 2,275 m 261.44° 275.76° Asphalt 397 ft / 121 m 0 ft / 0 m

Popular Alternatives